EXS73D EGKK-LEMG
Flight info
| Callsign | EXS73D |
|---|---|
| Flight time | N/A |
| Altitude | 37000 |
| Route | IMVUR N63 SAM M195 MARUK N621 LELNA DCT NOVAN DCT DELOG DCT CRISA N864 VULPE |
| Aircraft | A21N/M-SDE2E3FGHIRWXY/LB1 |
Departure
| Time | 2026-05-05 19:42 |
|---|---|
| Airport | London Gatwick Airport (EGKK) |
Arrival
| Time | N/A |
|---|---|
| Airport | Málaga-Costa del Sol Airport (LEMG) |
| Time | Latitude | Longitude | Altitude | Speed | Heading |
|---|---|---|---|---|---|
| 2026-05-05 19:18 | 51.15504 | -0.16843 | 209 ft | 0 kts | 348° |
| 2026-05-05 19:25 | 51.15481 | -0.16835 | 209 ft | 4 kts | 348° |
| 2026-05-05 19:25 | 51.15461 | -0.16828 | 217 ft | 4 kts | 334° |
| 2026-05-05 19:25 | 51.15451 | -0.16807 | 216 ft | 4 kts | 258° |
| 2026-05-05 19:25 | 51.15456 | -0.16771 | 214 ft | 2 kts | 257° |
| 2026-05-05 19:26 | 51.15456 | -0.16769 | 214 ft | 0 kts | 257° |
| 2026-05-05 19:30 | 51.15456 | -0.16774 | 214 ft | 1 kts | 257° |
| 2026-05-05 19:30 | 51.15452 | -0.16799 | 215 ft | 3 kts | 258° |
| 2026-05-05 19:30 | 51.15446 | -0.16846 | 213 ft | 5 kts | 258° |
| 2026-05-05 19:30 | 51.15436 | -0.16917 | 209 ft | 8 kts | 257° |
| 2026-05-05 19:31 | 51.15422 | -0.17016 | 209 ft | 11 kts | 258° |
| 2026-05-05 19:31 | 51.15400 | -0.17143 | 216 ft | 13 kts | 246° |
| 2026-05-05 19:31 | 51.15369 | -0.17286 | 211 ft | 15 kts | 251° |
| 2026-05-05 19:31 | 51.15328 | -0.17369 | 212 ft | 9 kts | 210° |
| 2026-05-05 19:32 | 51.15296 | -0.17463 | 212 ft | 11 kts | 262° |
| 2026-05-05 19:32 | 51.15281 | -0.17592 | 209 ft | 13 kts | 257° |
| 2026-05-05 19:32 | 51.15261 | -0.17739 | 214 ft | 15 kts | 258° |
| 2026-05-05 19:32 | 51.15238 | -0.17905 | 211 ft | 16 kts | 257° |
| 2026-05-05 19:33 | 51.15212 | -0.18088 | 211 ft | 18 kts | 257° |
| 2026-05-05 19:33 | 51.15186 | -0.18283 | 217 ft | 19 kts | 265° |
| 2026-05-05 19:33 | 51.15162 | -0.18496 | 213 ft | 20 kts | 257° |
| 2026-05-05 19:33 | 51.15131 | -0.18721 | 209 ft | 21 kts | 258° |
| 2026-05-05 19:34 | 51.15098 | -0.18960 | 211 ft | 23 kts | 257° |
| 2026-05-05 19:34 | 51.15072 | -0.19155 | 214 ft | 9 kts | 257° |
| 2026-05-05 19:34 | 51.15049 | -0.19246 | 212 ft | 10 kts | 227° |
| 2026-05-05 19:35 | 51.14943 | -0.19414 | 211 ft | 14 kts | 259° |
| 2026-05-05 19:35 | 51.14922 | -0.19578 | 213 ft | 16 kts | 258° |
| 2026-05-05 19:35 | 51.14897 | -0.19759 | 213 ft | 17 kts | 258° |
| 2026-05-05 19:35 | 51.14870 | -0.19952 | 215 ft | 19 kts | 258° |
| 2026-05-05 19:36 | 51.14842 | -0.20160 | 208 ft | 20 kts | 258° |
| 2026-05-05 19:36 | 51.14811 | -0.20380 | 211 ft | 21 kts | 257° |
| 2026-05-05 19:36 | 51.14778 | -0.20615 | 209 ft | 22 kts | 257° |
| 2026-05-05 19:36 | 51.14744 | -0.20864 | 212 ft | 24 kts | 258° |
| 2026-05-05 19:37 | 51.14713 | -0.21093 | 212 ft | 18 kts | 258° |
| 2026-05-05 19:37 | 51.14692 | -0.21253 | 211 ft | 13 kts | 258° |
| 2026-05-05 19:37 | 51.14668 | -0.21327 | 217 ft | 5 kts | 213° |
| 2026-05-05 19:37 | 51.14637 | -0.21333 | 213 ft | 3 kts | 168° |
| 2026-05-05 19:38 | 51.14633 | -0.21332 | 212 ft | 0 kts | 168° |
| 2026-05-05 19:40 | 51.14621 | -0.21328 | 209 ft | 3 kts | 168° |
| 2026-05-05 19:40 | 51.14592 | -0.21317 | 214 ft | 6 kts | 162° |
| 2026-05-05 19:40 | 51.14550 | -0.21283 | 215 ft | 8 kts | 141° |
| 2026-05-05 19:40 | 51.14519 | -0.21203 | 212 ft | 10 kts | 90° |
| 2026-05-05 19:41 | 51.14529 | -0.21101 | 214 ft | 8 kts | 77° |
| 2026-05-05 19:41 | 51.14553 | -0.20929 | 209 ft | 38 kts | 77° |
| 2026-05-05 19:41 | 51.14658 | -0.20161 | 214 ft | 101 kts | 78° |
| 2026-05-05 19:41 | 51.14848 | -0.18792 | 211 ft | 150 kts | 78° |
| 2026-05-05 19:42 | 51.15081 | -0.17102 | 624 ft | 151 kts | 77° |
| 2026-05-05 19:42 | 51.15302 | -0.15511 | 1182 ft | 146 kts | 79° |
| 2026-05-05 19:42 | 51.15507 | -0.13891 | 1553 ft | 156 kts | 77° |
| 2026-05-05 19:42 | 51.15753 | -0.12132 | 1985 ft | 170 kts | 77° |
| 2026-05-05 19:43 | 51.16021 | -0.10217 | 2544 ft | 184 kts | 76° |
| 2026-05-05 19:43 | 51.16355 | -0.08109 | 2926 ft | 212 kts | 69° |
| 2026-05-05 19:43 | 51.17200 | -0.06112 | 2993 ft | 221 kts | 39° |
| 2026-05-05 19:43 | 51.18572 | -0.05077 | 3010 ft | 221 kts | 8° |
| 2026-05-05 19:44 | 51.20094 | -0.05248 | 3387 ft | 222 kts | 347° |
| 2026-05-05 19:44 | 51.21531 | -0.06176 | 4245 ft | 226 kts | 326° |
| 2026-05-05 19:44 | 51.22562 | -0.08070 | 5100 ft | 233 kts | 298° |
| 2026-05-05 19:44 | 51.22872 | -0.10732 | 5580 ft | 260 kts | 267° |
| 2026-05-05 19:45 | 51.22540 | -0.13609 | 6248 ft | 272 kts | 259° |
| 2026-05-05 19:45 | 51.22120 | -0.16576 | 7071 ft | 276 kts | 259° |
| 2026-05-05 19:45 | 51.21717 | -0.19585 | 7931 ft | 279 kts | 260° |
| 2026-05-05 19:45 | 51.21332 | -0.22634 | 8815 ft | 282 kts | 261° |
| 2026-05-05 19:46 | 51.20957 | -0.25729 | 9723 ft | 285 kts | 261° |
| 2026-05-05 19:46 | 51.20710 | -0.27802 | 10261 ft | 288 kts | 261° |
| 2026-05-05 19:46 | 51.20209 | -0.32043 | 11265 ft | 294 kts | 261° |
| 2026-05-05 19:46 | 51.19958 | -0.34178 | 11613 ft | 296 kts | 261° |
| 2026-05-05 19:47 | 51.19557 | -0.37411 | 11869 ft | 298 kts | 259° |
| 2026-05-05 19:47 | 51.19129 | -0.40651 | 11954 ft | 299 kts | 259° |
| 2026-05-05 19:47 | 51.18699 | -0.43896 | 11962 ft | 299 kts | 259° |
| 2026-05-05 19:47 | 51.18270 | -0.47146 | 11960 ft | 299 kts | 259° |
| 2026-05-05 19:48 | 51.17841 | -0.50390 | 11956 ft | 299 kts | 258° |
| 2026-05-05 19:48 | 51.17012 | -0.53421 | 11937 ft | 303 kts | 234° |
| 2026-05-05 19:48 | 51.15494 | -0.55981 | 12076 ft | 331 kts | 223° |
| 2026-05-05 19:48 | 51.13722 | -0.58435 | 12691 ft | 341 kts | 221° |
| 2026-05-05 19:49 | 51.11924 | -0.60861 | 13480 ft | 345 kts | 221° |
| 2026-05-05 19:49 | 51.10078 | -0.63350 | 14230 ft | 349 kts | 220° |
| 2026-05-05 19:49 | 51.08220 | -0.65857 | 14961 ft | 352 kts | 220° |
| 2026-05-05 19:49 | 51.06477 | -0.68205 | 15625 ft | 355 kts | 220° |
| 2026-05-05 19:50 | 51.04584 | -0.70764 | 16334 ft | 359 kts | 221° |
| 2026-05-05 19:50 | 51.02676 | -0.73354 | 17026 ft | 363 kts | 221° |
| 2026-05-05 19:50 | 51.00737 | -0.75982 | 17719 ft | 367 kts | 221° |
| 2026-05-05 19:50 | 50.98787 | -0.78621 | 18382 ft | 370 kts | 221° |
| 2026-05-05 19:51 | 50.96837 | -0.81255 | 18989 ft | 373 kts | 221° |
| 2026-05-05 19:51 | 50.94851 | -0.83935 | 19604 ft | 376 kts | 221° |
| 2026-05-05 19:51 | 50.92853 | -0.86629 | 20224 ft | 379 kts | 221° |
| 2026-05-05 19:51 | 50.90837 | -0.89342 | 20830 ft | 381 kts | 221° |
| 2026-05-05 19:52 | 50.88810 | -0.92068 | 21434 ft | 383 kts | 221° |
| 2026-05-05 19:52 | 50.86768 | -0.94810 | 22009 ft | 386 kts | 221° |
| 2026-05-05 19:52 | 50.84707 | -0.97573 | 22585 ft | 389 kts | 221° |
| 2026-05-05 19:52 | 50.82632 | -1.00352 | 23156 ft | 392 kts | 221° |
| 2026-05-05 19:53 | 50.80570 | -1.03113 | 23682 ft | 394 kts | 221° |
| 2026-05-05 19:53 | 50.78471 | -1.05919 | 24177 ft | 396 kts | 221° |
| 2026-05-05 19:53 | 50.76357 | -1.08742 | 24658 ft | 398 kts | 221° |
| 2026-05-05 19:53 | 50.74235 | -1.11572 | 25146 ft | 400 kts | 221° |
| 2026-05-05 19:54 | 50.72151 | -1.14345 | 25607 ft | 402 kts | 221° |
| 2026-05-05 19:54 | 50.70006 | -1.17195 | 26071 ft | 404 kts | 220° |
| 2026-05-05 19:54 | 50.67846 | -1.20064 | 26529 ft | 406 kts | 220° |
| 2026-05-05 19:54 | 50.65683 | -1.22935 | 26972 ft | 407 kts | 220° |
| 2026-05-05 19:55 | 50.63520 | -1.25801 | 27393 ft | 409 kts | 220° |
| 2026-05-05 19:55 | 50.61330 | -1.28698 | 27741 ft | 413 kts | 220° |
| 2026-05-05 19:55 | 50.59164 | -1.31562 | 28095 ft | 416 kts | 220° |
| 2026-05-05 19:55 | 50.56967 | -1.34464 | 28474 ft | 419 kts | 219° |
| 2026-05-05 19:56 | 50.54729 | -1.37414 | 28871 ft | 421 kts | 219° |
| 2026-05-05 19:56 | 50.52478 | -1.40376 | 29269 ft | 422 kts | 220° |
| 2026-05-05 19:56 | 50.50229 | -1.43333 | 29717 ft | 422 kts | 220° |
| 2026-05-05 19:56 | 50.47970 | -1.46299 | 30113 ft | 423 kts | 219° |
| 2026-05-05 19:57 | 50.45705 | -1.49271 | 30422 ft | 425 kts | 219° |
| 2026-05-05 19:57 | 50.43428 | -1.52256 | 30713 ft | 427 kts | 219° |
| 2026-05-05 19:57 | 50.41143 | -1.55246 | 30999 ft | 429 kts | 219° |
| 2026-05-05 19:57 | 50.38869 | -1.58217 | 31220 ft | 432 kts | 219° |
| 2026-05-05 19:58 | 50.36541 | -1.61254 | 31450 ft | 436 kts | 219° |
| 2026-05-05 19:58 | 50.34201 | -1.64304 | 31710 ft | 438 kts | 219° |
| 2026-05-05 19:58 | 50.31847 | -1.67367 | 31980 ft | 440 kts | 219° |
| 2026-05-05 19:58 | 50.29481 | -1.70440 | 32239 ft | 442 kts | 219° |
| 2026-05-05 19:59 | 50.27113 | -1.73515 | 32535 ft | 443 kts | 219° |
| 2026-05-05 19:59 | 50.24735 | -1.76595 | 32862 ft | 442 kts | 219° |
| 2026-05-05 19:59 | 50.22373 | -1.79654 | 33206 ft | 441 kts | 219° |
| 2026-05-05 19:59 | 50.20018 | -1.82699 | 33698 ft | 436 kts | 219° |
| 2026-05-05 20:00 | 50.17723 | -1.85663 | 34141 ft | 432 kts | 219° |
| 2026-05-05 20:00 | 50.15415 | -1.88637 | 34451 ft | 430 kts | 220° |
| 2026-05-05 20:00 | 50.13109 | -1.91608 | 34672 ft | 430 kts | 220° |
| 2026-05-05 20:00 | 50.10807 | -1.94569 | 34892 ft | 430 kts | 219° |
| 2026-05-05 20:01 | 50.08484 | -1.97552 | 34973 ft | 431 kts | 219° |
| 2026-05-05 20:01 | 50.03856 | -2.03483 | 34948 ft | 430 kts | 219° |
| 2026-05-05 20:02 | 49.99169 | -2.09278 | 34934 ft | 431 kts | 213° |
| 2026-05-05 20:02 | 49.96523 | -2.11465 | 34932 ft | 431 kts | 202° |
| 2026-05-05 20:02 | 49.93719 | -2.12929 | 34938 ft | 432 kts | 197° |
| 2026-05-05 20:03 | 49.87929 | -2.15535 | 34937 ft | 433 kts | 196° |
| 2026-05-05 20:03 | 49.82149 | -2.18192 | 34941 ft | 433 kts | 197° |
| 2026-05-05 20:04 | 49.76384 | -2.20871 | 34939 ft | 433 kts | 197° |
| 2026-05-05 20:04 | 49.70611 | -2.23552 | 34940 ft | 430 kts | 196° |
| 2026-05-05 20:04 | 49.67779 | -2.24882 | 34921 ft | 416 kts | 195° |
| 2026-05-05 20:05 | 49.65064 | -2.26089 | 34615 ft | 401 kts | 196° |
| 2026-05-05 20:05 | 49.62489 | -2.27246 | 30680 ft | 407 kts | 195° |
| 2026-05-05 20:05 | 49.59294 | -2.28649 | 27076 ft | 504 kts | 195° |
| 2026-05-05 20:05 | 49.56341 | -2.30994 | 25163 ft | 440 kts | 251° |
| 2026-05-05 20:06 | 49.55667 | -2.31951 | 14461 ft | 262 kts | 88° |
| 2026-05-05 20:06 | 49.55587 | -2.27908 | 11536 ft | 391 kts | 91° |